createdAt,value
2019-04-26T07:24:09.003Z,354.38
2019-04-26T07:25:09.008Z,371.25
2019-04-26T07:26:08.943Z,376.88
2019-04-26T07:27:09.001Z,388.13
2019-04-26T07:28:11.830Z,376.88
2019-04-26T07:29:09.319Z,376.88
2019-04-26T07:30:09.857Z,365.63
2019-04-26T07:31:08.818Z,360.00
2019-04-26T07:32:09.533Z,354.38
2019-04-26T07:33:08.792Z,348.75
2019-04-26T07:34:09.489Z,360.00
2019-04-26T07:35:08.800Z,376.88
2019-04-26T07:36:09.732Z,382.50
2019-04-26T07:37:08.874Z,393.75
2019-04-26T07:38:09.025Z,399.38
2019-04-26T07:39:17.707Z,399.38
2019-04-26T07:40:09.209Z,405.00
2019-04-26T07:41:09.310Z,399.38
2019-04-26T07:42:09.480Z,410.63
2019-04-26T07:43:08.581Z,421.88
2019-04-26T07:44:09.715Z,438.75
2019-04-26T07:45:08.548Z,461.25
2019-04-26T07:46:08.528Z,472.50
2019-04-26T07:47:08.603Z,478.13
2019-04-26T07:48:09.486Z,478.13
2019-04-26T07:49:08.492Z,478.13
2019-04-26T07:50:09.396Z,478.13
2019-04-26T07:51:09.422Z,489.38
2019-04-26T07:52:08.555Z,495.00
2019-04-26T07:53:09.281Z,506.25
2019-04-26T07:54:08.977Z,511.88
2019-04-26T07:55:08.695Z,500.63
2019-04-26T07:56:09.298Z,483.75
2019-04-26T07:57:08.718Z,472.50
2019-04-26T07:58:08.976Z,450.00
2019-04-26T07:59:08.811Z,438.75
2019-04-26T08:00:08.731Z,427.50
2019-04-26T08:01:08.250Z,416.25
2019-04-26T08:02:09.016Z,399.38
2019-04-26T08:03:08.723Z,399.38
2019-04-26T08:04:09.374Z,405.00
2019-04-26T08:05:09.406Z,410.63
2019-04-26T08:06:08.175Z,421.88
2019-04-26T08:07:08.257Z,427.50
2019-04-26T08:08:08.630Z,444.38
2019-04-26T08:09:08.108Z,444.38
2019-04-26T08:10:08.092Z,461.25
2019-04-26T08:11:08.665Z,466.88
2019-04-26T08:12:08.110Z,478.13
2019-04-26T08:13:08.107Z,489.38
2019-04-26T08:14:08.538Z,489.38
2019-04-26T08:15:08.991Z,478.13
2019-04-26T08:16:08.624Z,455.63
2019-04-26T08:17:08.220Z,427.50
2019-04-26T08:37:58.782Z,393.75
2019-04-26T08:38:58.745Z,410.63
2019-04-26T08:39:59.426Z,427.50
2019-04-26T08:41:00.481Z,450.00
2019-04-26T08:41:58.689Z,466.88
2019-04-26T08:42:58.762Z,478.13
2019-04-26T08:43:59.764Z,478.13
2019-04-26T08:44:58.627Z,450.00
2019-04-26T08:46:03.161Z,427.50
2019-04-26T08:46:58.590Z,421.88
2019-04-26T08:47:58.590Z,433.13
2019-04-26T08:49:02.117Z,450.00
2019-04-26T08:49:58.532Z,461.25
2019-04-26T08:50:58.515Z,466.88
2019-04-26T08:51:58.498Z,472.50
2019-04-26T08:52:58.477Z,472.50
2019-04-26T08:53:58.474Z,483.75
2019-04-26T08:54:58.441Z,500.63
2019-04-26T08:55:58.425Z,534.38
2019-04-26T08:56:58.404Z,562.50
2019-04-26T08:57:58.394Z,585.00
2019-04-26T08:58:58.384Z,607.50
2019-04-26T08:59:58.353Z,630.00
2019-04-26T09:00:58.331Z,658.13
2019-04-26T09:01:58.315Z,686.25
2019-04-26T09:02:58.331Z,691.88
2019-04-26T09:03:58.296Z,697.50
2019-04-26T09:04:58.261Z,703.13
2019-04-26T09:05:58.243Z,697.50
2019-04-26T09:06:58.225Z,703.13
2019-04-26T09:07:58.926Z,703.13
2019-04-26T09:08:58.211Z,697.50
2019-04-26T09:10:01.542Z,675.00
2019-04-26T09:10:58.162Z,641.25
2019-04-26T09:11:59.848Z,607.50
2019-04-26T09:12:58.126Z,573.75
2019-04-26T09:13:58.104Z,551.25
2019-04-26T09:14:58.100Z,528.75
2019-04-26T09:15:58.106Z,523.13
2019-04-26T09:16:58.052Z,528.75
2019-04-26T09:17:58.035Z,534.38
2019-04-26T09:18:59.756Z,556.88
2019-04-26T09:19:58.297Z,596.25
2019-04-26T09:20:57.984Z,635.63
2019-04-26T09:22:02.885Z,686.25
2019-04-26T09:23:03.885Z,731.25
2019-04-26T09:23:57.933Z,787.50
2019-04-26T09:24:59.450Z,826.88
2019-04-26T09:26:00.336Z,849.38
2019-04-26T09:26:57.877Z,838.13
2019-04-26T09:27:58.992Z,821.25
2019-04-26T09:28:57.845Z,804.38
2019-04-26T09:30:00.520Z,798.75
2019-04-26T09:30:57.817Z,793.13
2019-04-26T09:31:57.802Z,781.88
2019-04-26T09:32:58.365Z,776.25
2019-04-26T09:33:57.764Z,748.13
2019-04-26T09:34:57.771Z,720.00
2019-04-26T09:35:57.730Z,691.88
2019-04-26T09:36:57.712Z,663.75
2019-04-26T09:37:57.697Z,646.88
2019-04-26T09:38:57.679Z,646.88
2019-04-26T09:40:09.396Z,641.25
2019-04-26T09:41:00.460Z,635.63
2019-04-26T09:42:01.082Z,635.63
2019-04-26T09:42:59.402Z,646.88
2019-04-26T09:43:58.893Z,658.13
2019-04-26T09:44:57.582Z,646.88
2019-04-26T09:45:57.577Z,646.88
2019-04-26T09:46:57.547Z,658.13
2019-04-26T09:47:57.530Z,680.63
2019-04-26T09:48:57.515Z,675.00
2019-04-26T09:49:57.505Z,652.50
2019-04-26T09:50:57.545Z,607.50
2019-04-26T09:51:57.465Z,590.63
2019-04-26T09:52:58.277Z,573.75
2019-04-26T09:53:57.431Z,573.75
2019-04-26T09:54:57.417Z,573.75
2019-04-26T09:55:57.421Z,579.38
2019-04-26T09:56:57.392Z,556.88
2019-04-26T10:02:06.264Z,568.13
2019-04-26T10:03:09.396Z,551.25
2019-04-26T10:04:06.210Z,534.38
2019-04-26T10:05:08.073Z,495.00
2019-04-26T10:06:08.187Z,438.75
2019-04-26T10:07:06.159Z,405.00
2019-04-26T10:14:46.369Z,421.88
2019-04-26T10:15:43.658Z,438.75
2019-04-26T10:16:43.654Z,450.00
2019-04-26T10:17:46.437Z,438.75
2019-04-26T10:18:43.603Z,416.25
2019-04-26T10:19:43.583Z,405.00
2019-04-26T10:20:43.569Z,416.25
2019-04-26T10:25:38.059Z,776.25
2019-04-26T10:26:38.027Z,793.13
2019-04-26T10:27:40.673Z,793.13
2019-04-26T10:28:37.991Z,793.13
2019-04-26T10:29:37.971Z,793.13
2019-04-26T10:30:38.421Z,826.88
2019-04-26T10:31:37.936Z,883.13
2019-04-26T10:32:37.939Z,973.13
2019-04-26T10:33:37.932Z,1074.38
2019-04-26T10:34:37.885Z,1192.50
2019-04-26T10:35:37.866Z,1288.13
2019-04-26T10:36:37.855Z,1344.38
2019-04-26T10:37:39.542Z,1333.13
2019-04-26T10:38:37.835Z,1293.75
2019-04-26T10:39:37.801Z,1231.88
2019-04-26T10:40:37.778Z,1215.00
2019-04-26T10:41:37.762Z,1203.75
2019-04-26T10:42:37.747Z,1215.00
2019-04-26T10:43:37.742Z,1203.75
2019-04-26T10:44:39.826Z,1164.38
2019-04-26T10:45:37.695Z,1119.38
2019-04-26T10:46:37.678Z,1080.00
2019-04-26T10:47:38.435Z,1040.63
2019-04-26T10:48:37.665Z,990.00
2019-04-26T10:49:37.635Z,984.38
2019-04-26T10:50:37.616Z,1001.25
2019-04-26T10:51:38.681Z,1029.38
2019-04-26T10:52:37.592Z,1063.13
2019-04-26T10:53:37.605Z,1085.63
2019-04-26T10:54:41.104Z,1080.00
2019-04-26T10:55:37.542Z,1006.88
2019-04-26T10:56:37.526Z,900.00
2019-04-26T10:57:37.507Z,765.00
2019-04-26T10:58:37.824Z,680.63
2019-04-26T10:59:39.743Z,658.13
2019-04-26T11:00:37.474Z,686.25
2019-04-26T11:01:37.446Z,753.75
2019-04-26T11:02:37.431Z,877.50
2019-04-26T11:03:37.418Z,922.50
2019-04-26T11:04:41.298Z,916.88
2019-04-26T11:05:37.385Z,973.13
2019-04-26T11:06:37.368Z,1063.13
2019-04-26T11:07:37.353Z,1102.50
2019-04-26T11:08:37.340Z,1141.88
2019-04-26T11:09:37.343Z,1198.13
2019-04-26T11:10:48.095Z,1220.63
2019-04-26T11:11:37.301Z,1231.88
2019-04-26T11:12:39.611Z,1237.50
2019-04-26T11:13:37.262Z,1231.88
2019-04-26T11:14:37.249Z,1237.50
2019-04-26T11:15:37.250Z,1226.25
2019-04-26T11:16:40.916Z,1198.13
2019-04-26T11:17:37.201Z,1141.88
2019-04-26T11:18:37.189Z,1051.88
2019-04-26T11:19:37.174Z,990.00
2019-04-26T11:20:37.175Z,939.38
2019-04-26T11:21:37.143Z,894.38
2019-04-26T11:22:37.648Z,838.13
2019-04-26T11:23:37.117Z,804.38
2019-04-26T11:24:37.099Z,787.50
2019-04-26T11:25:37.105Z,770.63
2019-04-26T11:26:37.069Z,736.88
2019-04-26T11:27:40.119Z,680.63
2019-04-26T11:28:37.037Z,596.25
2019-04-26T11:29:37.021Z,517.50
2019-04-26T11:30:37.020Z,438.75
2019-04-26T11:31:37.011Z,388.13
2019-04-26T11:32:38.177Z,376.88
2019-04-26T11:33:44.756Z,382.50
2019-04-26T11:34:36.945Z,421.88
2019-04-26T11:35:37.054Z,483.75
2019-04-26T11:36:37.668Z,573.75
2019-04-26T11:37:36.906Z,691.88
2019-04-26T11:38:36.884Z,843.75
2019-04-26T11:39:40.590Z,973.13
2019-04-26T11:40:36.853Z,1068.75
2019-04-26T11:41:37.629Z,1136.25
2019-04-26T11:42:36.820Z,1170.00
2019-04-26T11:43:36.804Z,1226.25
2019-04-26T11:44:36.792Z,1254.38
2019-04-26T11:45:36.780Z,1231.88
2019-04-26T11:46:44.563Z,1175.63
2019-04-26T11:47:37.155Z,1170.00
2019-04-26T11:48:36.729Z,1209.38
2019-04-26T11:49:37.406Z,1293.75
2019-04-26T11:50:36.698Z,1378.13
2019-04-26T11:51:36.699Z,1417.50
2019-04-26T11:52:37.412Z,1400.63
2019-04-26T11:53:40.497Z,1316.25
2019-04-26T11:54:36.639Z,1231.88
2019-04-26T11:55:36.623Z,1164.38
2019-04-26T11:56:37.655Z,1119.38
2019-04-26T11:57:36.593Z,1080.00
2019-04-26T11:58:36.581Z,1018.13
2019-04-26T11:59:36.562Z,933.75
2019-04-26T12:00:36.548Z,843.75
2019-04-26T12:01:36.845Z,810.00
2019-04-26T12:02:36.524Z,871.88
2019-04-26T12:03:36.507Z,945.00
2019-04-26T12:04:36.492Z,1012.50
2019-04-26T12:05:36.475Z,1096.88
2019-04-26T12:06:36.460Z,1175.63
2019-04-26T12:07:36.458Z,1170.00
2019-04-26T12:08:36.432Z,1175.63
2019-04-26T12:09:36.416Z,1226.25
2019-04-26T12:10:36.405Z,1293.75
2019-04-26T12:11:48.759Z,1361.25
2019-04-26T12:12:36.386Z,1451.25
2019-04-26T12:13:36.373Z,1518.75
2019-04-26T12:14:36.343Z,1541.25
2019-04-26T12:15:39.003Z,1524.38
2019-04-26T12:16:47.021Z,1558.13
2019-04-26T12:17:36.836Z,1530.00
2019-04-26T12:18:36.288Z,1468.13
2019-04-26T12:19:36.267Z,1383.75
2019-04-26T12:20:36.255Z,1254.38
2019-04-26T12:21:36.287Z,1125.00
2019-04-26T12:22:39.294Z,995.63
2019-04-26T12:23:43.783Z,928.13
2019-04-26T12:24:36.198Z,877.50
2019-04-26T12:25:48.090Z,888.75
2019-04-26T12:26:46.240Z,871.88
2019-04-26T12:27:43.921Z,810.00
2019-04-26T12:28:39.564Z,748.13
2019-04-26T12:29:36.123Z,720.00
2019-04-26T12:30:36.108Z,748.13
2019-04-26T12:31:36.127Z,838.13
2019-04-26T12:32:36.077Z,900.00
2019-04-26T12:33:46.401Z,916.88
2019-04-26T12:34:36.048Z,945.00
2019-04-26T12:35:36.033Z,961.88
2019-04-26T12:36:36.018Z,978.75
2019-04-26T12:37:36.022Z,1006.88
2019-04-26T12:38:35.987Z,1029.38
2019-04-26T12:39:36.595Z,1057.50
2019-04-26T12:40:35.960Z,1085.63
2019-04-26T12:41:40.430Z,1091.25
2019-04-26T12:42:35.941Z,1113.75
2019-04-26T12:43:35.914Z,1192.50
2019-04-26T12:44:36.813Z,1282.50
2019-04-26T12:45:35.883Z,1378.13
2019-04-26T12:46:35.869Z,1451.25
2019-04-26T12:47:38.635Z,1496.25
2019-04-26T12:48:35.842Z,1518.75
2019-04-26T12:49:35.826Z,1485.00
2019-04-26T12:50:37.764Z,1378.13
2019-04-26T12:51:38.182Z,1260.00
2019-04-26T12:52:37.479Z,1153.13
2019-04-26T12:53:35.783Z,1130.63
2019-04-26T12:54:39.066Z,1181.25
2019-04-26T12:55:35.739Z,1209.38
2019-04-26T12:56:35.726Z,1231.88
2019-04-26T12:57:36.525Z,1288.13
2019-04-26T12:58:35.710Z,1361.25
2019-04-26T12:59:43.955Z,1440.00
2019-04-26T13:00:37.591Z,1468.13
2019-04-26T13:01:35.653Z,1451.25
2019-04-26T13:02:35.641Z,1496.25
2019-04-26T13:03:35.639Z,1620.00
2019-04-26T13:04:36.599Z,1625.63
2019-04-26T13:05:35.604Z,1597.50
2019-04-26T13:06:35.583Z,1597.50
2019-04-26T13:07:35.568Z,1625.63
2019-04-26T13:08:35.575Z,1631.25
2019-04-26T13:09:35.541Z,1670.63
2019-04-26T13:10:36.892Z,1940.63
2019-04-26T13:11:35.512Z,2227.50
2019-04-26T13:12:35.500Z,2289.38
2019-04-26T13:13:35.487Z,2238.75
2019-04-26T13:14:38.725Z,2154.38
2019-04-26T13:15:35.462Z,2098.13
2019-04-26T13:16:35.449Z,2058.75
2019-04-26T13:17:36.108Z,2019.38
2019-04-26T13:18:35.423Z,1918.13
2019-04-26T13:19:35.442Z,1755.00
2019-04-26T13:20:35.460Z,1670.63
2019-04-26T13:21:37.256Z,1333.13
2019-04-26T13:22:45.419Z,1265.63
2019-04-26T13:23:35.367Z,1248.75
2019-04-26T13:24:35.613Z,1288.13
2019-04-26T13:25:40.536Z,1338.75
2019-04-26T13:26:36.432Z,2064.38
2019-04-26T13:27:35.301Z,1873.13
2019-04-26T13:28:35.286Z,2311.88
2019-04-26T13:29:35.273Z,1485.00
2019-04-26T13:30:35.277Z,1535.63
2019-04-26T13:31:35.260Z,2362.50
2019-04-26T13:32:35.233Z,2193.75
2019-04-26T13:33:35.219Z,2041.88
2019-04-26T13:34:37.280Z,2081.25
2019-04-26T13:35:35.196Z,2272.50
2019-04-26T13:36:35.195Z,2806.88
2019-04-26T13:37:35.700Z,2885.63
2019-04-26T13:38:35.155Z,2778.75
2019-04-26T13:39:35.143Z,2801.25
2019-04-26T13:40:35.131Z,2925.00
2019-04-26T13:41:38.600Z,2986.88
2019-04-26T13:42:35.105Z,3026.25
2019-04-26T13:43:35.094Z,2801.25
2019-04-26T13:44:35.693Z,2520.00
2019-04-26T13:45:35.067Z,1755.00
2019-04-26T13:46:35.067Z,2154.38
2019-04-26T13:47:35.048Z,2120.63
2019-04-26T13:48:35.032Z,2092.50
2019-04-26T13:49:35.910Z,2148.75
2019-04-26T13:50:35.894Z,2188.13
2019-04-26T13:51:35.006Z,2131.88
2019-04-26T13:52:34.983Z,2070.00
2019-04-26T13:53:34.978Z,1951.88
2019-04-26T13:54:35.859Z,1603.13
2019-04-26T13:55:35.877Z,1951.88
2019-04-26T13:56:36.001Z,1991.25
2019-04-26T13:57:35.896Z,2070.00
2019-04-26T13:58:35.860Z,2058.75
2019-04-26T13:59:34.942Z,2002.50
2019-04-26T14:00:35.882Z,1946.25
2019-04-26T14:01:34.925Z,1918.13
2019-04-26T14:02:34.900Z,1878.75
2019-04-26T14:03:35.422Z,1878.75
2019-04-26T14:04:37.176Z,1861.88
2019-04-26T14:05:34.836Z,1839.38
2019-04-26T14:06:34.893Z,1867.50
2019-04-26T14:07:34.809Z,1901.25
2019-04-26T14:08:34.802Z,1873.13
2019-04-26T14:09:34.794Z,1867.50
2019-04-26T14:10:34.785Z,1732.50
2019-04-26T14:11:34.762Z,1591.88
2019-04-26T14:12:34.772Z,1513.13
2019-04-26T14:13:34.735Z,1468.13
2019-04-26T14:14:35.285Z,1496.25
2019-04-26T14:15:34.716Z,1591.88
2019-04-26T14:16:34.702Z,1726.88
2019-04-26T14:17:34.712Z,1906.88
2019-04-26T14:18:38.856Z,1929.38
2019-04-26T14:19:34.663Z,2002.50
2019-04-26T14:20:34.651Z,2058.75
2019-04-26T14:21:34.926Z,2075.63
2019-04-26T14:22:37.011Z,2216.25
2019-04-26T14:23:34.614Z,2227.50
2019-04-26T14:24:34.602Z,2120.63
2019-04-26T14:25:34.592Z,2385.00
2019-04-26T14:26:35.368Z,2536.88
2019-04-26T14:27:34.585Z,2761.88
2019-04-26T14:28:34.560Z,2413.13
2019-04-26T14:29:34.543Z,2053.13
2019-04-26T14:30:37.381Z,1783.13
2019-04-26T14:31:34.521Z,1575.00
2019-04-26T14:32:34.509Z,1631.25
2019-04-26T14:33:34.509Z,1383.75
2019-04-26T14:34:36.181Z,1620.00
2019-04-26T14:35:34.473Z,2261.25
2019-04-26T14:36:34.462Z,2863.13
2019-04-26T14:37:34.449Z,2913.75
2019-04-26T14:38:39.541Z,3448.13
2019-04-26T14:39:49.235Z,3459.38
2019-04-26T14:40:34.491Z,3150.00
2019-04-26T14:41:34.483Z,3082.50
2019-04-26T14:42:41.999Z,2880.00
2019-04-26T14:43:41.073Z,2683.13
2019-04-26T14:44:34.371Z,2829.38
2019-04-26T14:45:36.424Z,3386.25
2019-04-26T14:46:47.851Z,3268.13
2019-04-26T14:47:46.447Z,1811.25
2019-04-26T14:48:36.273Z,3133.13
2019-04-26T14:49:39.643Z,2835.00
2019-04-26T14:50:34.308Z,1158.75
2019-04-26T14:51:34.302Z,961.88
2019-04-26T14:52:34.287Z,810.00
2019-04-26T14:53:36.439Z,1051.88
2019-04-26T14:54:34.286Z,742.50
2019-04-26T14:55:34.259Z,691.88
2019-04-26T14:56:34.252Z,680.63
2019-04-26T14:57:34.236Z,680.63
2019-04-26T14:58:34.225Z,725.63
2019-04-26T14:59:34.229Z,2778.75
2019-04-26T15:00:34.202Z,3082.50
2019-04-26T15:01:35.301Z,3262.50
2019-04-26T15:02:34.183Z,3307.50
2019-04-26T15:03:34.167Z,3583.13
2019-04-26T15:04:34.194Z,3881.25
2019-04-26T15:05:34.145Z,4196.25
2019-04-26T15:06:34.138Z,1670.63
2019-04-26T15:07:35.065Z,1102.50
2019-04-26T15:08:34.325Z,3864.38
2019-04-26T15:09:36.386Z,3763.13
2019-04-26T15:10:43.764Z,3543.75
2019-04-26T15:11:36.083Z,2919.38
2019-04-26T15:12:45.909Z,2806.88
2019-04-26T15:13:40.252Z,3656.25
2019-04-26T15:14:34.096Z,3690.00
2019-04-26T15:15:34.665Z,2255.63
2019-04-26T15:16:34.058Z,3256.88
2019-04-26T15:17:34.035Z,3628.13
2019-04-26T15:18:37.062Z,1423.13
2019-04-26T15:19:35.229Z,1665.00
2019-04-26T15:20:34.052Z,1524.38
2019-04-26T15:21:34.416Z,1012.50
2019-04-26T15:22:33.984Z,3498.75
2019-04-26T15:23:33.987Z,1074.38
2019-04-26T15:24:38.234Z,3560.63
2019-04-26T15:25:36.634Z,2435.63
2019-04-26T15:26:33.963Z,1338.75
2019-04-26T15:27:36.232Z,765.00
2019-04-26T15:28:33.932Z,703.13
2019-04-26T15:29:34.536Z,675.00
2019-04-26T15:30:41.768Z,652.50
2019-04-26T15:31:33.918Z,680.63
2019-04-26T15:32:35.234Z,815.63
2019-04-26T15:33:35.891Z,781.88
2019-04-26T15:34:33.874Z,2632.50
2019-04-26T15:35:35.771Z,2823.75
2019-04-26T15:36:33.871Z,928.13
2019-04-26T15:37:33.846Z,973.13
2019-04-26T15:38:41.126Z,984.38
2019-04-26T15:39:33.825Z,933.75
2019-04-26T15:40:35.161Z,883.13
2019-04-26T15:41:33.841Z,883.13
2019-04-26T15:42:33.813Z,1569.38
2019-04-26T15:43:33.781Z,1023.75
2019-04-26T15:44:33.771Z,2570.63
2019-04-26T15:45:38.654Z,3200.63
2019-04-26T15:46:33.752Z,3110.63
2019-04-26T15:47:34.408Z,3065.63
2019-04-26T15:48:33.729Z,3240.00
2019-04-26T15:49:36.543Z,2840.63
2019-04-26T15:50:33.708Z,2705.63
2019-04-26T15:51:33.699Z,2964.38
2019-04-26T15:52:34.010Z,3037.50
2019-04-26T15:53:33.681Z,2778.75
2019-04-26T15:54:33.672Z,2908.13
2019-04-26T15:55:39.650Z,821.25
2019-04-26T15:56:33.655Z,815.63
2019-04-26T15:57:34.696Z,770.63
2019-04-26T15:58:33.640Z,787.50
2019-04-26T15:59:33.631Z,1755.00
2019-04-26T16:00:40.474Z,2480.63
2019-04-26T16:01:33.630Z,2570.63
2019-04-26T16:02:33.620Z,2520.00
2019-04-26T16:03:36.731Z,2598.75
2019-04-26T16:04:33.592Z,2531.25
2019-04-26T16:05:33.582Z,1378.13
2019-04-26T16:06:37.326Z,1068.75
2019-04-26T16:07:34.534Z,1057.50
2019-04-26T16:08:42.422Z,1760.63
2019-04-26T16:09:33.551Z,2626.88
2019-04-26T16:10:36.804Z,2694.38
2019-04-26T16:11:33.542Z,2576.25
2019-04-26T16:12:35.205Z,2638.13
2019-04-26T16:13:33.635Z,2559.38
2019-04-26T16:14:36.633Z,2356.88
2019-04-26T16:15:33.784Z,1940.63
2019-04-26T16:16:34.668Z,2041.88
2019-04-26T16:17:36.212Z,2323.13
2019-04-26T16:18:33.615Z,2098.13
2019-04-26T16:19:33.610Z,1721.25
2019-04-26T16:20:38.098Z,1811.25
2019-04-26T16:21:33.541Z,1698.75
2019-04-26T16:22:34.411Z,1496.25
2019-04-26T16:23:41.200Z,1355.63
2019-04-26T16:24:40.912Z,1254.38
2019-04-26T16:25:34.468Z,995.63
2019-04-26T16:26:33.442Z,1029.38
2019-04-26T16:27:34.564Z,1068.75
2019-04-26T16:28:33.425Z,860.63
2019-04-26T16:29:33.428Z,703.13
2019-04-26T16:30:37.424Z,658.13
2019-04-26T16:31:34.273Z,708.75
2019-04-26T16:32:34.593Z,601.88
2019-04-26T16:33:33.794Z,652.50
2019-04-26T16:34:33.374Z,736.88
2019-04-26T16:35:33.351Z,703.13
2019-04-26T16:36:36.487Z,708.75
2019-04-26T16:37:35.190Z,776.25
2019-04-26T16:38:33.330Z,708.75
2019-04-26T16:39:39.114Z,736.88
2019-04-26T16:40:33.301Z,911.25
2019-04-26T16:41:37.749Z,1108.13
2019-04-26T16:42:33.282Z,1085.63
2019-04-26T16:43:40.020Z,1108.13
2019-04-26T16:44:33.562Z,1203.75
2019-04-26T16:45:37.174Z,1220.63
2019-04-26T16:46:33.424Z,1265.63
2019-04-26T16:47:35.422Z,1215.00
2019-04-26T16:48:33.218Z,1198.13
2019-04-26T16:49:41.812Z,1057.50
2019-04-26T16:50:37.219Z,1091.25
2019-04-26T16:51:34.017Z,1108.13
2019-04-26T16:52:33.691Z,967.50
2019-04-26T16:53:45.863Z,855.00
2019-04-26T16:54:34.312Z,832.50
2019-04-26T16:56:35.604Z,815.63
2019-04-26T16:57:33.892Z,855.00
2019-04-26T16:58:38.161Z,765.00
2019-04-26T16:59:33.105Z,804.38
2019-04-26T17:00:33.601Z,922.50
2019-04-26T17:00:50.202Z,798.75
2019-04-26T17:01:33.496Z,703.13
2019-04-26T17:02:36.468Z,731.25
2019-04-26T17:03:38.043Z,455.63
2019-04-26T17:04:36.208Z,427.50
2019-04-26T17:05:47.172Z,416.25
2019-04-26T17:06:33.046Z,405.00
2019-04-26T17:07:36.889Z,393.75
2019-04-26T17:08:33.013Z,382.50
2019-04-26T17:09:54.855Z,376.88
2019-04-26T17:10:32.989Z,365.63
2019-04-26T17:11:35.022Z,348.75
2019-04-26T17:12:33.177Z,343.13
2019-04-26T17:13:34.972Z,337.50
2019-04-26T17:14:34.131Z,343.13
2019-04-26T17:15:34.590Z,337.50
2019-04-26T17:16:36.920Z,337.50
2019-04-26T17:17:33.198Z,331.88
2019-04-26T17:18:32.889Z,326.25
2019-04-26T17:19:35.845Z,309.38
2019-04-26T17:20:33.961Z,298.13
2019-04-26T17:21:34.737Z,286.88
2019-04-26T17:22:42.604Z,286.88
2019-04-26T17:23:33.385Z,286.88
2019-04-26T17:24:32.812Z,292.50
2019-04-26T17:25:32.796Z,298.13
2019-04-26T17:26:35.501Z,292.50
2019-04-26T17:27:33.094Z,275.63
2019-04-26T17:28:32.758Z,270.00
2019-04-26T17:29:33.459Z,258.75
2019-04-26T17:30:40.769Z,253.13
2019-04-26T17:31:33.639Z,247.50
2019-04-26T17:32:34.972Z,236.25
2019-04-26T17:33:32.753Z,219.38
2019-04-26T17:34:33.645Z,202.50
2019-04-26T17:35:32.846Z,191.25
2019-04-26T17:36:34.452Z,174.38
2019-04-26T17:37:32.634Z,157.50
2019-04-26T17:38:35.158Z,140.63
2019-04-26T17:39:32.602Z,129.38
2019-04-26T17:40:36.461Z,123.75
2019-04-26T17:41:33.308Z,112.50
2019-04-26T17:42:36.464Z,101.25
2019-04-26T17:43:32.567Z,90.00
2019-04-26T17:44:34.065Z,78.75
2019-04-26T17:45:32.522Z,67.50
2019-04-26T17:46:32.754Z,67.50
2019-04-26T17:47:36.375Z,67.50
2019-04-26T17:48:33.699Z,67.50
2019-04-26T17:49:34.450Z,78.75
2019-04-26T17:50:35.318Z,84.38
2019-04-26T17:51:41.539Z,84.38
2019-04-26T17:52:36.149Z,84.38
2019-04-26T17:53:33.723Z,73.13
2019-04-26T17:54:45.980Z,67.50
2019-04-26T17:55:33.677Z,67.50
2019-04-26T17:56:34.854Z,67.50
2019-04-26T17:57:36.735Z,67.50
2019-04-26T17:58:34.390Z,61.88
2019-04-26T17:59:35.856Z,56.25
2019-04-26T18:00:45.356Z,50.63
2019-04-26T18:01:44.382Z,50.63
2019-04-26T18:02:42.174Z,45.00
2019-04-26T18:03:32.634Z,39.38
2019-04-26T18:04:36.871Z,33.75
2019-04-26T18:05:45.095Z,45.00
2019-04-26T18:06:32.201Z,45.00
2019-04-26T18:07:41.403Z,45.00
2019-04-26T18:08:40.624Z,45.00
2019-04-26T18:09:41.403Z,45.00
2019-04-26T18:10:35.487Z,45.00
2019-04-26T18:11:32.984Z,45.00
2019-04-26T18:12:38.429Z,45.00
2019-04-26T18:13:32.205Z,50.63
2019-04-26T18:14:32.197Z,50.63
2019-04-26T18:15:33.324Z,50.63
2019-04-26T18:16:32.890Z,45.00
2019-04-26T18:17:32.982Z,45.00
2019-04-26T18:18:32.017Z,45.00
2019-04-26T18:19:33.477Z,45.00
2019-04-26T18:20:33.522Z,45.00
2019-04-26T18:21:33.500Z,45.00
2019-04-26T18:22:34.556Z,45.00
2019-04-26T18:23:33.802Z,56.25
2019-04-26T18:24:34.863Z,61.88
2019-04-26T18:25:31.906Z,61.88
2019-04-26T18:26:32.782Z,73.13
2019-04-26T18:27:35.786Z,78.75
2019-04-26T18:28:31.858Z,78.75
2019-04-26T18:29:33.587Z,73.13
2019-04-26T18:30:32.973Z,67.50
2019-04-26T18:31:33.606Z,61.88
2019-04-26T18:32:33.963Z,61.88
2019-04-26T18:33:32.878Z,56.25
2019-04-26T18:34:40.530Z,50.63
2019-04-26T18:35:31.744Z,45.00
2019-04-26T18:36:33.075Z,39.38
2019-04-26T18:37:36.433Z,33.75
2019-04-26T18:38:31.701Z,39.38
2019-04-26T18:39:33.063Z,33.75
2019-04-26T18:40:35.404Z,28.13
2019-04-26T18:41:31.651Z,28.13
2019-04-26T18:42:33.334Z,22.50
2019-04-26T18:43:32.787Z,16.88
2019-04-26T18:44:36.892Z,16.88
2019-04-26T18:45:31.583Z,16.88
2019-04-26T18:46:31.931Z,16.88
2019-04-26T18:47:31.568Z,11.25
2019-04-26T18:48:35.250Z,11.25
2019-04-26T18:49:32.955Z,11.25
2019-04-26T18:50:32.783Z,11.25
2019-04-26T18:51:31.480Z,5.63
2019-04-26T18:52:32.974Z,5.63
2019-04-26T18:53:36.605Z,5.63
2019-04-26T18:54:32.872Z,5.63
2019-04-26T18:55:34.313Z,5.63
2019-04-26T18:56:36.997Z,0.00
2019-04-26T18:57:31.383Z,0.00
2019-04-26T18:58:34.734Z,0.00
2019-04-26T18:59:31.345Z,0.00
2019-04-26T19:00:31.329Z,0.00
2019-04-26T19:01:34.725Z,0.00
2019-04-26T19:02:31.292Z,0.00
2019-04-26T19:03:31.292Z,0.00
2019-04-26T19:04:31.257Z,0.00
2019-04-26T19:05:31.241Z,0.00
2019-04-26T19:06:33.555Z,0.00
2019-04-26T19:07:32.626Z,0.00
2019-04-26T19:08:43.867Z,0.00
2019-04-26T19:09:33.910Z,0.00
2019-04-26T19:10:34.103Z,0.00
2019-04-26T19:11:32.390Z,0.00
2019-04-26T19:12:32.520Z,0.00
2019-04-26T19:13:36.558Z,0.00
2019-04-26T19:14:31.745Z,0.00
2019-04-26T19:15:33.630Z,0.00
2019-04-26T19:16:31.941Z,0.00
2019-04-26T19:17:31.789Z,0.00
2019-04-26T19:18:33.684Z,0.00
2019-04-26T19:19:31.479Z,0.00
2019-04-26T19:20:32.316Z,0.00
2019-04-26T19:21:32.324Z,0.00
2019-04-26T19:22:32.216Z,0.00
2019-04-26T19:23:32.062Z,0.00
2019-04-26T19:24:30.908Z,0.00
2019-04-26T19:25:34.472Z,0.00
2019-04-26T19:26:34.887Z,0.00
2019-04-26T19:27:30.849Z,0.00
2019-04-26T19:28:30.834Z,0.00
2019-04-26T19:29:34.312Z,0.00
2019-04-26T19:30:30.937Z,0.00
2019-04-26T19:31:30.783Z,0.00
2019-04-26T19:32:35.196Z,0.00
2019-04-26T19:33:31.380Z,0.00
2019-04-26T19:34:31.355Z,0.00
2019-04-26T19:35:30.715Z,0.00
2019-04-26T19:36:30.703Z,0.00
2019-04-26T19:37:36.756Z,0.00
2019-04-26T19:38:30.652Z,0.00
2019-04-26T19:39:33.746Z,0.00
2019-04-26T19:40:30.614Z,0.00
2019-04-26T19:41:31.507Z,0.00
2019-04-26T19:42:30.962Z,0.00
2019-04-26T19:43:34.672Z,0.00
2019-04-26T19:44:31.612Z,0.00
2019-04-26T19:45:31.302Z,0.00
2019-04-26T19:46:31.592Z,0.00
2019-04-26T19:47:30.486Z,0.00
2019-04-26T19:48:31.481Z,0.00
2019-04-26T19:49:33.264Z,0.00
2019-04-26T19:50:30.434Z,0.00
2019-04-26T19:51:30.462Z,0.00
2019-04-26T19:52:33.767Z,0.00
2019-04-26T19:53:30.377Z,0.00
2019-04-26T19:54:35.596Z,0.00
2019-04-26T19:55:31.762Z,0.00
2019-04-26T19:56:31.479Z,0.00
2019-04-26T19:57:33.397Z,0.00
2019-04-26T19:58:31.976Z,0.00
2019-04-26T19:59:33.048Z,0.00
2019-04-26T20:00:32.027Z,0.00
2019-04-26T20:01:30.231Z,0.00
2019-04-26T20:02:35.846Z,0.00
2019-04-26T20:03:30.192Z,0.00
2019-04-26T20:04:33.781Z,0.00
2019-04-26T20:05:31.909Z,0.00
2019-04-26T20:06:30.135Z,0.00
2019-04-26T20:07:30.117Z,0.00
2019-04-26T20:08:30.113Z,0.00
2019-04-26T20:09:31.809Z,0.00
2019-04-26T20:10:30.062Z,0.00
2019-04-26T20:11:31.582Z,0.00
2019-04-26T20:12:35.433Z,0.00
2019-04-26T20:13:31.671Z,0.00
2019-04-26T20:14:43.356Z,0.00
2019-04-26T20:15:31.665Z,0.00
2019-04-26T20:16:29.949Z,0.00
2019-04-26T20:17:29.929Z,0.00
2019-04-26T20:18:34.437Z,0.00
2019-04-26T20:19:35.145Z,0.00
2019-04-26T20:20:34.553Z,0.00
2019-04-26T20:21:32.107Z,0.00
2019-04-26T20:22:30.575Z,0.00
2019-04-26T20:23:33.617Z,0.00
2019-04-26T20:24:29.813Z,0.00
2019-04-26T20:25:30.236Z,0.00